createdAt,value
2018-09-29T00:02:03.927Z,99.90
2018-09-29T00:04:34.568Z,99.90
2018-09-29T00:07:05.022Z,99.90
2018-09-29T00:09:35.977Z,99.90
2018-09-29T00:12:05.941Z,99.90
2018-09-29T00:14:36.433Z,99.90
2018-09-29T00:17:06.887Z,99.90
2018-09-29T00:19:37.337Z,99.90
2018-09-29T00:22:07.500Z,99.90
2018-09-29T00:24:38.965Z,99.90
2018-09-29T00:27:09.719Z,99.90
2018-09-29T00:29:40.148Z,99.90
2018-09-29T00:32:10.627Z,99.90
2018-09-29T00:34:40.917Z,99.90
2018-09-29T00:37:11.436Z,99.90
2018-09-29T00:39:41.953Z,99.90
2018-09-29T00:42:11.480Z,99.90
2018-09-29T00:44:42.796Z,99.90
2018-09-29T00:47:13.203Z,99.90
2018-09-29T00:49:42.858Z,99.90
2018-09-29T00:52:13.029Z,99.90
2018-09-29T00:54:44.755Z,99.90
2018-09-29T00:57:14.205Z,99.90
2018-09-29T00:59:45.292Z,99.90
2018-09-29T01:02:16.522Z,99.90
2018-09-29T01:04:47.623Z,99.90
2018-09-29T01:07:18.720Z,99.90
2018-09-29T01:09:49.671Z,99.90
2018-09-29T01:12:19.971Z,99.90
2018-09-29T01:14:50.454Z,99.90
2018-09-29T01:17:21.763Z,99.90
2018-09-29T01:19:52.365Z,99.90
2018-09-29T01:22:22.796Z,99.90
2018-09-29T01:24:53.073Z,99.90
2018-09-29T01:27:23.780Z,99.90
2018-09-29T01:29:54.109Z,99.90
2018-09-29T01:32:24.639Z,99.90
2018-09-29T01:34:55.775Z,99.90
2018-09-29T01:37:26.497Z,99.90
2018-09-29T01:39:56.079Z,99.90
2018-09-29T01:42:26.550Z,99.90
2018-09-29T01:44:56.971Z,99.90
2018-09-29T01:47:27.203Z,99.90
2018-09-29T01:49:58.335Z,99.90
2018-09-29T01:52:28.397Z,99.90
2018-09-29T01:54:59.453Z,99.90
2018-09-29T01:57:30.640Z,99.90
2018-09-29T02:00:01.812Z,99.90
2018-09-29T02:02:32.107Z,99.90
2018-09-29T02:05:03.056Z,99.90
2018-09-29T02:07:33.184Z,99.90
2018-09-29T02:10:02.631Z,99.90
2018-09-29T02:12:32.811Z,99.90
2018-09-29T02:15:04.308Z,99.90
2018-09-29T02:17:35.032Z,99.90
2018-09-29T02:20:05.480Z,99.90
2018-09-29T02:22:35.849Z,99.90
2018-09-29T02:25:07.339Z,99.90
2018-09-29T02:27:37.885Z,99.90
2018-09-29T02:30:08.225Z,99.90
2018-09-29T02:32:38.845Z,99.90
2018-09-29T02:35:10.069Z,99.90
2018-09-29T02:37:40.740Z,99.90
2018-09-29T02:40:11.101Z,99.90
2018-09-29T02:42:41.633Z,99.90
2018-09-29T02:45:12.152Z,99.90
2018-09-29T02:47:43.309Z,99.90
2018-09-29T02:50:14.095Z,99.90
2018-09-29T02:52:44.572Z,99.90
2018-09-29T02:55:14.744Z,99.90
2018-09-29T02:57:45.448Z,99.90
2018-09-29T03:00:15.752Z,99.90
2018-09-29T03:02:46.694Z,99.90
2018-09-29T03:05:18.420Z,99.90
2018-09-29T03:07:49.099Z,99.90
2018-09-29T03:10:20.663Z,99.90
2018-09-29T03:12:51.283Z,99.90
2018-09-29T03:15:22.229Z,99.90
2018-09-29T03:17:53.240Z,99.90
2018-09-29T03:20:23.592Z,99.90
2018-09-29T03:22:54.169Z,99.90
2018-09-29T03:25:25.552Z,99.90
2018-09-29T03:27:55.809Z,99.90
2018-09-29T03:30:26.571Z,99.90
2018-09-29T03:32:57.764Z,99.90
2018-09-29T03:35:28.487Z,99.90
2018-09-29T03:37:59.547Z,99.90
2018-09-29T03:40:30.443Z,99.90
2018-09-29T03:43:00.925Z,99.90
2018-09-29T03:45:31.961Z,99.90
2018-09-29T03:48:02.787Z,99.90
2018-09-29T03:50:33.373Z,99.90
2018-09-29T03:53:03.765Z,99.90
2018-09-29T03:55:34.190Z,99.90
2018-09-29T03:58:04.663Z,99.90
2018-09-29T04:00:35.132Z,99.90
2018-09-29T04:03:05.974Z,99.90
2018-09-29T04:05:35.972Z,99.90
2018-09-29T04:08:06.904Z,99.90
2018-09-29T04:10:37.677Z,99.90
2018-09-29T04:13:07.708Z,99.90
2018-09-29T04:15:39.547Z,99.90
2018-09-29T04:18:10.614Z,99.90
2018-09-29T04:20:43.750Z,99.90
2018-09-29T04:23:16.255Z,99.90
2018-09-29T04:25:47.334Z,99.90
2018-09-29T04:28:25.239Z,99.90
2018-09-29T04:30:59.195Z,99.90
2018-09-29T04:33:30.469Z,99.90
2018-09-29T04:36:00.789Z,99.90
2018-09-29T04:38:31.559Z,99.90
2018-09-29T04:41:02.441Z,99.90
2018-09-29T04:43:34.636Z,99.90
2018-09-29T04:46:06.558Z,99.90
2018-09-29T04:48:37.160Z,99.90
2018-09-29T04:51:08.334Z,99.90
2018-09-29T04:53:39.226Z,99.90
2018-09-29T04:56:10.619Z,99.90
2018-09-29T04:58:41.708Z,99.90
2018-09-29T05:01:21.047Z,99.90
2018-09-29T05:04:55.832Z,99.90
2018-09-29T05:18:48.015Z,99.90
2018-09-29T05:21:24.504Z,99.90
2018-09-29T05:23:55.785Z,99.90
2018-09-29T05:26:32.009Z,99.90
2018-09-29T05:29:05.297Z,99.90
2018-09-29T05:32:07.148Z,99.90
2018-09-29T05:34:42.120Z,99.90
2018-09-29T05:37:20.109Z,99.90
2018-09-29T06:08:34.100Z,99.90
2018-09-29T06:11:12.137Z,99.90
2018-09-29T06:13:43.073Z,99.90
2018-09-29T06:16:13.984Z,99.90
2018-09-29T06:18:45.082Z,99.90
2018-09-29T06:21:16.027Z,99.90
2018-09-29T06:23:45.592Z,99.90
2018-09-29T06:26:16.188Z,99.90
2018-09-29T06:28:46.329Z,99.90
2018-09-29T06:31:17.203Z,99.90
2018-09-29T06:33:47.057Z,99.90
2018-09-29T06:36:15.789Z,99.90
2018-09-29T06:38:44.607Z,99.90
2018-09-29T06:41:14.628Z,99.90
2018-09-29T06:43:44.508Z,99.90
2018-09-29T06:46:15.224Z,99.90
2018-09-29T06:48:43.983Z,99.90
2018-09-29T06:51:14.091Z,99.90
2018-09-29T06:53:43.969Z,99.90
2018-09-29T06:56:13.773Z,99.90
2018-09-29T06:58:43.688Z,99.90
2018-09-29T07:01:13.576Z,99.90
2018-09-29T07:03:43.415Z,99.90
2018-09-29T07:06:13.921Z,99.90
2018-09-29T07:08:43.879Z,97.10
2018-09-29T07:11:16.024Z,96.50
2018-09-29T07:13:45.811Z,99.90
2018-09-29T07:16:15.782Z,99.90
2018-09-29T07:18:46.595Z,99.90
2018-09-29T07:21:16.235Z,94.70
2018-09-29T07:23:47.456Z,94.00
2018-09-29T07:26:19.113Z,65.20
2018-09-29T07:28:48.530Z,51.50
2018-09-29T07:31:17.340Z,61.20
2018-09-29T07:33:47.827Z,52.60
2018-09-29T07:36:17.760Z,50.00
2018-09-29T07:38:46.408Z,48.00
2018-09-29T07:41:15.037Z,67.30
2018-09-29T07:43:45.201Z,48.50
2018-09-29T07:46:16.288Z,45.10
2018-09-29T07:48:46.896Z,52.40
2018-09-29T07:51:16.924Z,53.70
2018-09-29T07:53:46.844Z,53.20
2018-09-29T07:56:17.824Z,58.90
2018-09-29T07:58:48.536Z,66.60
2018-09-29T08:01:19.511Z,92.90
2018-09-29T08:03:52.077Z,95.50
2018-09-29T08:06:23.895Z,98.50
2018-09-29T08:08:54.987Z,91.40
2018-09-29T08:11:25.734Z,59.70
2018-09-29T08:13:56.869Z,47.90
2018-09-29T08:16:31.511Z,56.70
2018-09-29T08:19:02.660Z,51.50
2018-09-29T08:21:39.601Z,61.70
2018-09-29T08:24:10.606Z,88.70
2018-09-29T08:26:40.306Z,99.90
2018-09-29T08:29:11.254Z,87.60
2018-09-29T08:31:41.068Z,70.30
2018-09-29T08:34:10.928Z,84.20
2018-09-29T08:36:39.779Z,58.70
2018-09-29T08:39:10.547Z,48.50
2018-09-29T08:41:40.506Z,46.10
2018-09-29T08:44:10.988Z,47.00
2018-09-29T08:46:41.287Z,52.00
2018-09-29T08:49:12.137Z,60.00
2018-09-29T08:51:42.869Z,52.50
2018-09-29T08:54:12.872Z,49.70
2018-09-29T08:56:42.732Z,49.30
2018-09-29T08:59:12.604Z,49.60
2018-09-29T09:01:42.468Z,54.70
2018-09-29T09:04:13.276Z,48.90
2018-09-29T09:06:43.243Z,49.20
2018-09-29T09:09:13.094Z,50.30
2018-09-29T09:11:42.973Z,48.60
2018-09-29T09:14:12.628Z,56.60
2018-09-29T09:16:42.484Z,77.80
2018-09-29T09:19:12.510Z,59.30
2018-09-29T09:21:42.183Z,63.40
2018-09-29T09:24:12.338Z,60.60
2018-09-29T09:26:43.211Z,50.60
2018-09-29T09:29:13.055Z,43.20
2018-09-29T09:31:42.933Z,41.00
2018-09-29T09:34:12.816Z,40.20
2018-09-29T09:36:42.676Z,40.10
2018-09-29T09:39:13.539Z,40.70
2018-09-29T09:41:44.389Z,41.10
2018-09-29T09:44:14.310Z,39.40
2018-09-29T09:46:45.180Z,35.90
2018-09-29T09:49:16.058Z,36.60
2018-09-29T09:51:45.931Z,36.00
2018-09-29T09:54:15.804Z,33.30
2018-09-29T09:56:46.668Z,34.00
2018-09-29T09:59:16.569Z,34.30
2018-09-29T10:01:52.539Z,33.20
2018-09-29T10:04:23.241Z,33.90
2018-09-29T10:06:53.666Z,35.10
2018-09-29T10:09:24.648Z,32.90
2018-09-29T10:11:55.019Z,32.50
2018-09-29T10:14:24.869Z,33.30
2018-09-29T10:16:54.765Z,32.20
2018-09-29T10:19:24.616Z,31.60
2018-09-29T10:21:54.506Z,29.70
2018-09-29T10:24:24.347Z,32.00
2018-09-29T10:26:54.235Z,34.30
2018-09-29T10:29:24.111Z,33.10
2018-09-29T10:31:53.990Z,29.60
2018-09-29T10:34:24.823Z,31.60
2018-09-29T10:36:55.755Z,32.20
2018-09-29T10:39:25.625Z,31.80
2018-09-29T10:41:55.302Z,35.20
2018-09-29T10:44:25.077Z,36.60
2018-09-29T10:46:55.203Z,38.30
2018-09-29T10:49:25.653Z,36.90
2018-09-29T10:51:56.885Z,36.50
2018-09-29T10:54:27.803Z,37.40
2018-09-29T10:56:57.724Z,36.90
2018-09-29T10:59:27.544Z,38.50
2018-09-29T11:01:57.184Z,39.50
2018-09-29T11:04:28.295Z,38.30
2018-09-29T11:06:59.206Z,38.20
2018-09-29T11:09:29.071Z,37.60
2018-09-29T11:11:59.517Z,38.50
2018-09-29T11:14:29.874Z,38.80
2018-09-29T11:17:01.257Z,40.10
2018-09-29T11:19:31.567Z,39.10
2018-09-29T11:22:01.443Z,35.30
2018-09-29T11:24:32.145Z,37.40
2018-09-29T11:27:02.195Z,38.30
2018-09-29T11:29:32.045Z,40.90
2018-09-29T11:32:01.904Z,41.50
2018-09-29T11:34:32.703Z,42.90
2018-09-29T11:37:02.646Z,43.30
2018-09-29T11:39:33.297Z,41.60
2018-09-29T11:42:05.111Z,42.50
2018-09-29T11:44:36.282Z,42.70
2018-09-29T11:47:07.154Z,45.60
2018-09-29T11:49:38.115Z,42.50
2018-09-29T11:52:08.532Z,38.60
2018-09-29T11:54:38.696Z,40.20
2018-09-29T11:57:08.654Z,40.20
2018-09-29T11:59:38.522Z,38.10
2018-09-29T12:02:08.431Z,37.20
2018-09-29T12:04:39.535Z,37.00
2018-09-29T12:07:10.134Z,33.70
2018-09-29T12:09:40.606Z,35.50
2018-09-29T12:12:11.456Z,34.40
2018-09-29T12:14:41.759Z,35.30
2018-09-29T12:17:12.708Z,35.10
2018-09-29T12:19:43.520Z,35.60
2018-09-29T12:22:13.408Z,36.70
2018-09-29T12:24:44.240Z,35.80
2018-09-29T12:27:14.121Z,34.30
2018-09-29T12:29:46.087Z,35.80
2018-09-29T12:32:16.887Z,36.20
2018-09-29T12:34:48.650Z,35.00
2018-09-29T12:37:19.558Z,38.50
2018-09-29T12:39:50.235Z,37.90
2018-09-29T12:42:20.959Z,35.80
2018-09-29T12:44:51.989Z,38.40
2018-09-29T12:47:22.125Z,38.80
2018-09-29T12:49:53.768Z,37.20
2018-09-29T12:52:23.840Z,36.20
2018-09-29T12:54:54.616Z,34.20
2018-09-29T12:57:25.516Z,36.10
2018-09-29T12:59:55.510Z,32.50
2018-09-29T13:02:31.239Z,35.90
2018-09-29T13:05:02.310Z,35.80
2018-09-29T13:07:34.173Z,35.40
2018-09-29T13:10:06.829Z,38.60
2018-09-29T13:12:37.696Z,40.40
2018-09-29T13:15:08.908Z,42.40
2018-09-29T13:17:39.679Z,38.60
2018-09-29T13:22:50.295Z,39.80
2018-09-29T13:25:22.164Z,37.60
2018-09-29T13:27:53.461Z,36.70
2018-09-29T13:30:24.212Z,37.70
2018-09-29T13:32:55.057Z,34.70
2018-09-29T13:35:27.164Z,35.50
2018-09-29T13:38:03.904Z,35.70
2018-09-29T13:40:37.416Z,35.70
2018-09-29T13:43:09.712Z,35.60
2018-09-29T13:45:44.720Z,38.40
2018-09-29T13:51:10.404Z,37.80
2018-09-29T13:53:41.676Z,37.90
2018-09-29T13:56:12.490Z,38.80
2018-09-29T13:58:43.349Z,40.70
2018-09-29T14:01:14.233Z,42.70
2018-09-29T14:03:45.011Z,40.80
2018-09-29T14:06:15.858Z,41.30
2018-09-29T14:08:46.844Z,42.20
2018-09-29T14:11:23.623Z,41.40
2018-09-29T14:25:23.409Z,42.10
2018-09-29T14:29:05.761Z,40.70
2018-09-29T14:42:39.115Z,40.30
2018-09-29T15:07:25.718Z,42.50
2018-09-29T15:57:01.452Z,44.30
2018-09-29T15:59:33.580Z,45.20
2018-09-29T16:02:04.308Z,45.20
2018-09-29T16:04:35.549Z,44.80
2018-09-29T16:07:07.249Z,46.40
2018-09-29T16:09:39.465Z,54.90
2018-09-29T16:12:10.891Z,51.40
2018-09-29T16:14:41.675Z,60.70
2018-09-29T16:22:46.466Z,59.50
2018-09-29T16:25:18.500Z,54.40
2018-09-29T16:28:09.886Z,90.60
2018-09-29T16:30:41.602Z,85.70
2018-09-29T16:39:54.761Z,97.80
2018-09-29T16:45:22.907Z,96.20
2018-09-29T16:47:56.313Z,99.90
2018-09-29T16:50:28.568Z,99.90
2018-09-29T17:01:37.983Z,99.90
2018-09-29T17:04:12.549Z,99.90
2018-09-29T17:06:43.444Z,99.90
2018-09-29T17:09:15.541Z,99.90
2018-09-29T17:11:46.416Z,99.90
2018-09-29T17:14:17.895Z,99.90
2018-09-29T17:16:48.828Z,99.90
2018-09-29T17:19:31.856Z,99.90
2018-09-29T17:22:12.196Z,99.90
2018-09-29T17:24:45.040Z,99.90
2018-09-29T17:27:20.993Z,99.90
2018-09-29T17:40:02.420Z,99.90
2018-09-29T17:42:33.204Z,99.90
2018-09-29T17:45:04.523Z,99.90
2018-09-29T17:47:41.967Z,99.90
2018-09-29T17:50:13.937Z,99.90
2018-09-29T18:30:43.626Z,99.90
2018-09-29T18:33:16.642Z,99.90
2018-09-29T18:35:49.469Z,99.90
2018-09-29T18:38:21.251Z,99.90
2018-09-29T18:40:53.543Z,99.90
2018-09-29T18:43:24.952Z,99.90
2018-09-29T18:45:56.173Z,99.90
2018-09-29T18:48:26.785Z,99.90
2018-09-29T18:50:57.915Z,99.90
2018-09-29T18:53:28.597Z,99.90
2018-09-29T18:55:59.615Z,99.90
2018-09-29T18:58:30.497Z,99.90
2018-09-29T19:01:01.729Z,99.90
2018-09-29T19:03:33.167Z,99.90
2018-09-29T19:06:04.091Z,99.90
2018-09-29T19:08:35.412Z,99.90
2018-09-29T19:11:06.833Z,99.90
2018-09-29T19:13:37.416Z,99.90
2018-09-29T19:16:08.549Z,99.90
2018-09-29T19:18:41.351Z,99.90
2018-09-29T19:21:15.042Z,99.90
2018-09-29T19:23:46.196Z,99.90
2018-09-29T19:26:33.235Z,99.90
2018-09-29T19:29:07.858Z,99.90
2018-09-29T19:31:53.544Z,99.90
2018-09-29T19:34:28.866Z,99.90
2018-09-29T19:37:00.263Z,99.90
2018-09-29T19:39:32.332Z,99.90
2018-09-29T19:42:06.857Z,99.90
2018-09-29T19:44:45.649Z,99.90
2018-09-29T19:47:16.420Z,99.90
2018-09-29T19:49:47.372Z,99.90
2018-09-29T19:52:18.096Z,99.90
2018-09-29T19:54:53.272Z,99.90
2018-09-29T19:57:23.883Z,99.90
2018-09-29T19:59:54.827Z,99.90
2018-09-29T20:02:24.647Z,99.90
2018-09-29T20:04:54.504Z,99.90
2018-09-29T20:07:25.347Z,99.90
2018-09-29T20:09:56.230Z,99.90
2018-09-29T20:12:32.007Z,99.90
2018-09-29T20:15:03.775Z,99.90
2018-09-29T20:17:34.001Z,99.90
2018-09-29T20:20:04.774Z,99.90
2018-09-29T20:22:35.629Z,99.90
2018-09-29T20:25:06.486Z,99.90
2018-09-29T20:27:37.915Z,99.90
2018-09-29T20:30:09.237Z,99.90
2018-09-29T20:32:40.750Z,99.90
2018-09-29T20:35:11.676Z,99.90
2018-09-29T20:37:42.944Z,99.90
2018-09-29T20:40:14.404Z,99.90
2018-09-29T20:42:45.729Z,99.90
2018-09-29T20:45:16.331Z,99.90
2018-09-29T20:47:47.607Z,99.90
2018-09-29T20:50:19.141Z,99.90
2018-09-29T20:52:50.037Z,99.90
2018-09-29T20:55:21.369Z,99.90
2018-09-29T20:57:53.802Z,99.90
2018-09-29T21:00:24.621Z,99.90
2018-09-29T21:02:56.123Z,99.90
2018-09-29T21:05:32.259Z,99.90
2018-09-29T21:08:04.379Z,99.90
2018-09-29T21:10:35.191Z,99.90
2018-09-29T21:13:06.101Z,99.90
2018-09-29T21:15:38.659Z,99.90
2018-09-29T21:18:09.691Z,99.90
2018-09-29T21:20:41.094Z,99.90
2018-09-29T21:23:12.209Z,99.90
2018-09-29T21:25:43.137Z,99.90
2018-09-29T21:28:14.655Z,99.90
2018-09-29T21:30:45.117Z,99.90
2018-09-29T21:33:15.853Z,99.90
2018-09-29T21:35:46.770Z,99.90
2018-09-29T21:38:17.979Z,99.90
2018-09-29T21:40:48.488Z,99.90
2018-09-29T21:43:19.370Z,99.90
2018-09-29T21:45:50.984Z,99.90
2018-09-29T21:48:22.124Z,99.90
2018-09-29T21:50:52.761Z,99.90
2018-09-29T21:53:23.575Z,99.90
2018-09-29T21:55:53.671Z,99.90
2018-09-29T21:58:24.551Z,99.90
2018-09-29T22:00:55.340Z,99.90
2018-09-29T22:03:25.789Z,99.90
2018-09-29T22:05:56.226Z,99.90
2018-09-29T22:08:26.652Z,99.90
2018-09-29T22:10:57.079Z,99.90
2018-09-29T22:13:28.512Z,99.90
2018-09-29T22:15:58.987Z,99.90
2018-09-29T22:18:29.419Z,99.90
2018-09-29T22:20:59.922Z,99.90
2018-09-29T22:23:32.754Z,99.90
2018-09-29T22:26:02.770Z,99.90
2018-09-29T22:28:33.246Z,99.90
2018-09-29T22:31:04.736Z,99.90
2018-09-29T22:33:35.121Z,99.90
2018-09-29T22:36:07.162Z,99.90
2018-09-29T22:38:38.046Z,99.90
2018-09-29T22:41:08.450Z,99.90
2018-09-29T22:43:39.948Z,99.90
2018-09-29T22:46:10.460Z,99.90
2018-09-29T22:48:40.855Z,99.90
2018-09-29T22:51:11.335Z,99.90
2018-09-29T22:53:41.784Z,99.90
2018-09-29T22:56:13.184Z,99.90
2018-09-29T22:58:44.683Z,99.90
2018-09-29T23:01:15.155Z,99.90
2018-09-29T23:03:46.637Z,99.90
2018-09-29T23:06:17.089Z,99.90
2018-09-29T23:08:48.156Z,99.90
2018-09-29T23:11:19.024Z,99.90
2018-09-29T23:13:50.323Z,99.90
2018-09-29T23:16:20.950Z,99.90
2018-09-29T23:18:51.435Z,99.90
2018-09-29T23:21:23.831Z,99.90
2018-09-29T23:23:54.341Z,99.90
2018-09-29T23:26:24.763Z,99.90
2018-09-29T23:28:55.812Z,99.90
2018-09-29T23:31:26.722Z,99.90
2018-09-29T23:33:57.080Z,99.90
2018-09-29T23:36:27.627Z,99.90
2018-09-29T23:38:58.103Z,99.90
2018-09-29T23:41:28.560Z,99.90
2018-09-29T23:44:00.057Z,99.90
2018-09-29T23:46:31.479Z,99.90
2018-09-29T23:49:01.945Z,99.90
2018-09-29T23:51:32.406Z,99.90
2018-09-29T23:54:02.828Z,99.90
2018-09-29T23:56:34.300Z,99.90
2018-09-29T23:59:04.787Z,99.90
